sensor_id;sensor_type;location;lat;lon;timestamp;pressure;altitude;pressure_sealevel;temperature;humidity
6218;BME280;3142;48.206;11.550;2024-03-23T00:55:05;95155.78;;;14.26;50.87
6218;BME280;3142;48.206;11.550;2024-03-23T00:57:31;95149.91;;;14.24;50.56
6218;BME280;3142;48.206;11.550;2024-03-23T00:59:57;95150.88;;;14.18;49.59
6218;BME280;3142;48.206;11.550;2024-03-23T01:02:23;95136.69;;;14.19;49.99
6218;BME280;3142;48.206;11.550;2024-03-23T01:04:49;95140.34;;;14.18;49.98
6218;BME280;3142;48.206;11.550;2024-03-23T01:07:15;95139.56;;;14.17;49.86
6218;BME280;3142;48.206;11.550;2024-03-23T01:09:41;95130.38;;;14.20;49.72
6218;BME280;3142;48.206;11.550;2024-03-23T01:12:08;95128.00;;;14.18;49.20
6218;BME280;3142;48.206;11.550;2024-03-23T01:14:34;95130.78;;;14.12;49.67
6218;BME280;3142;48.206;11.550;2024-03-23T01:17:01;95123.91;;;14.11;49.02
6218;BME280;3142;48.206;11.550;2024-03-23T01:19:27;95130.53;;;14.13;49.68
6218;BME280;3142;48.206;11.550;2024-03-23T01:21:53;95118.97;;;14.14;48.92
6218;BME280;3142;48.206;11.550;2024-03-23T01:24:19;95118.19;;;14.14;49.93
6218;BME280;3142;48.206;11.550;2024-03-23T01:26:45;95119.22;;;14.13;49.30
6218;BME280;3142;48.206;11.550;2024-03-23T01:29:12;95118.97;;;14.14;49.30
6218;BME280;3142;48.206;11.550;2024-03-23T01:31:38;95106.53;;;14.10;49.31
6218;BME280;3142;48.206;11.550;2024-03-23T01:34:05;95109.38;;;14.08;50.21
6218;BME280;3142;48.206;11.550;2024-03-23T01:36:30;95112.25;;;14.07;49.00
6218;BME280;3142;48.206;11.550;2024-03-23T01:38:56;95103.56;;;14.06;49.29
6218;BME280;3142;48.206;11.550;2024-03-23T01:41:24;95095.44;;;14.08;49.72
6218;BME280;3142;48.206;11.550;2024-03-23T01:43:50;95093.53;;;14.03;49.62
6218;BME280;3142;48.206;11.550;2024-03-23T01:46:17;95100.09;;;13.89;49.02
6218;BME280;3142;48.206;11.550;2024-03-23T01:48:45;95094.72;;;13.84;50.19
6218;BME280;3142;48.206;11.550;2024-03-23T01:51:11;95092.81;;;13.79;49.91
6218;BME280;3142;48.206;11.550;2024-03-23T01:53:37;95091.94;;;13.74;50.85
6218;BME280;3142;48.206;11.550;2024-03-23T01:56:03;95091.38;;;13.72;50.21
6218;BME280;3142;48.206;11.550;2024-03-23T01:58:30;95089.19;;;13.69;51.02
6218;BME280;3142;48.206;11.550;2024-03-23T02:00:57;95083.13;;;13.68;50.67
6218;BME280;3142;48.206;11.550;2024-03-23T02:03:25;95081.66;;;13.72;50.56
6218;BME280;3142;48.206;11.550;2024-03-23T02:05:52;95080.28;;;13.70;50.38
6218;BME280;3142;48.206;11.550;2024-03-23T02:08:21;95075.00;;;13.70;50.93
6218;BME280;3142;48.206;11.550;2024-03-23T02:10:47;95068.41;;;13.67;51.17
6218;BME280;3142;48.206;11.550;2024-03-23T02:13:14;95072.63;;;13.68;51.13
6218;BME280;3142;48.206;11.550;2024-03-23T02:15:39;95068.41;;;13.67;50.45
6218;BME280;3142;48.206;11.550;2024-03-23T02:18:07;95060.50;;;13.67;51.13
6218;BME280;3142;48.206;11.550;2024-03-23T02:20:34;95063.63;;;13.64;50.93
6218;BME280;3142;48.206;11.550;2024-03-23T02:23:01;95058.84;;;13.61;51.67
6218;BME280;3142;48.206;11.550;2024-03-23T02:25:27;95061.22;;;13.62;50.47
6218;BME280;3142;48.206;11.550;2024-03-23T02:27:53;95050.63;;;13.57;51.59
6218;BME280;3142;48.206;11.550;2024-03-23T02:30:19;95046.59;;;13.55;51.68
6218;BME280;3142;48.206;11.550;2024-03-23T02:32:46;95050.84;;;13.56;51.54
6218;BME280;3142;48.206;11.550;2024-03-23T02:35:12;95039.19;;;13.52;51.79
6218;BME280;3142;48.206;11.550;2024-03-23T02:37:39;95033.38;;;13.50;51.06
6218;BME280;3142;48.206;11.550;2024-03-23T02:40:06;95038.09;;;13.48;52.03
6218;BME280;3142;48.206;11.550;2024-03-23T02:42:33;95036.59;;;13.40;51.41
6218;BME280;3142;48.206;11.550;2024-03-23T02:44:59;95031.03;;;13.37;51.32
6218;BME280;3142;48.206;11.550;2024-03-23T02:47:25;95023.06;;;13.31;51.93
6218;BME280;3142;48.206;11.550;2024-03-23T02:49:51;95022.94;;;13.26;52.66
6218;BME280;3142;48.206;11.550;2024-03-23T02:52:17;95020.56;;;13.25;52.62
6218;BME280;3142;48.206;11.550;2024-03-23T02:54:43;95027.06;;;13.22;53.25
6218;BME280;3142;48.206;11.550;2024-03-23T02:57:11;95022.06;;;13.21;52.64
6218;BME280;3142;48.206;11.550;2024-03-23T02:59:37;95017.03;;;13.19;52.20
6218;BME280;3142;48.206;11.550;2024-03-23T03:02:04;95019.88;;;13.18;52.75
6218;BME280;3142;48.206;11.550;2024-03-23T03:04:30;95017.47;;;13.16;53.76
6218;BME280;3142;48.206;11.550;2024-03-23T03:06:57;95009.47;;;13.11;52.84
6218;BME280;3142;48.206;11.550;2024-03-23T03:09:22;95011.31;;;13.11;53.30
6218;BME280;3142;48.206;11.550;2024-03-23T03:11:48;95010.03;;;13.13;52.91
6218;BME280;3142;48.206;11.550;2024-03-23T03:14:15;95004.00;;;13.13;53.11
6218;BME280;3142;48.206;11.550;2024-03-23T03:16:42;95006.84;;;13.11;53.69
6218;BME280;3142;48.206;11.550;2024-03-23T03:19:08;95000.16;;;13.03;53.24
6218;BME280;3142;48.206;11.550;2024-03-23T03:21:35;94996.59;;;12.98;53.96
6218;BME280;3142;48.206;11.550;2024-03-23T03:24:01;94993.09;;;12.92;54.65
6218;BME280;3142;48.206;11.550;2024-03-23T03:26:27;94987.13;;;12.97;54.10
6218;BME280;3142;48.206;11.550;2024-03-23T03:28:53;94995.25;;;12.95;54.44
6218;BME280;3142;48.206;11.550;2024-03-23T03:31:21;94991.25;;;12.93;54.51
6218;BME280;3142;48.206;11.550;2024-03-23T03:33:46;94996.97;;;12.90;54.95
6218;BME280;3142;48.206;11.550;2024-03-23T03:36:13;94986.81;;;12.82;55.39
6218;BME280;3142;48.206;11.550;2024-03-23T03:38:38;94992.88;;;12.82;54.66
6218;BME280;3142;48.206;11.550;2024-03-23T03:41:05;94987.38;;;12.84;55.55
6218;BME280;3142;48.206;11.550;2024-03-23T03:43:31;94982.38;;;12.82;56.26
6218;BME280;3142;48.206;11.550;2024-03-23T03:45:59;94973.22;;;12.85;55.71
6218;BME280;3142;48.206;11.550;2024-03-23T03:48:26;94970.50;;;12.80;56.31
6218;BME280;3142;48.206;11.550;2024-03-23T03:50:52;94966.53;;;12.77;55.24
6218;BME280;3142;48.206;11.550;2024-03-23T03:53:18;94968.13;;;12.78;55.47
6218;BME280;3142;48.206;11.550;2024-03-23T03:55:45;94959.22;;;12.79;55.30
6218;BME280;3142;48.206;11.550;2024-03-23T03:58:10;94962.88;;;12.78;55.83
6218;BME280;3142;48.206;11.550;2024-03-23T04:00:37;94956.25;;;12.75;55.75
6218;BME280;3142;48.206;11.550;2024-03-23T04:03:02;94947.78;;;12.73;57.06
6218;BME280;3142;48.206;11.550;2024-03-23T04:05:30;94945.97;;;12.74;56.38
6218;BME280;3142;48.206;11.550;2024-03-23T04:07:56;94949.38;;;12.74;56.16
6218;BME280;3142;48.206;11.550;2024-03-23T04:10:22;94944.97;;;12.75;56.84
6218;BME280;3142;48.206;11.550;2024-03-23T04:12:48;94939.00;;;12.80;55.82
6218;BME280;3142;48.206;11.550;2024-03-23T04:15:14;94933.19;;;12.78;56.19
6218;BME280;3142;48.206;11.550;2024-03-23T04:17:40;94927.47;;;12.81;56.63
6218;BME280;3142;48.206;11.550;2024-03-23T04:20:08;94920.97;;;12.83;56.59
6218;BME280;3142;48.206;11.550;2024-03-23T04:22:37;94920.97;;;12.83;56.80
6218;BME280;3142;48.206;11.550;2024-03-23T04:25:05;94913.41;;;12.87;55.89
6218;BME280;3142;48.206;11.550;2024-03-23T04:27:32;94910.56;;;12.88;56.06
6218;BME280;3142;48.206;11.550;2024-03-23T04:29:58;94910.66;;;12.93;56.10
6218;BME280;3142;48.206;11.550;2024-03-23T04:32:26;94899.44;;;12.98;55.94
6218;BME280;3142;48.206;11.550;2024-03-23T04:34:53;94914.31;;;12.92;55.33
6218;BME280;3142;48.206;11.550;2024-03-23T04:37:19;94898.56;;;12.92;55.46
6218;BME280;3142;48.206;11.550;2024-03-23T04:39:47;94894.91;;;12.93;56.01
6218;BME280;3142;48.206;11.550;2024-03-23T04:42:14;94892.06;;;12.95;56.14
6218;BME280;3142;48.206;11.550;2024-03-23T04:44:41;94883.69;;;12.98;55.06
6218;BME280;3142;48.206;11.550;2024-03-23T04:47:08;94892.13;;;13.00;55.81
6218;BME280;3142;48.206;11.550;2024-03-23T04:49:34;94884.25;;;13.00;55.30
6218;BME280;3142;48.206;11.550;2024-03-23T04:52:02;94884.00;;;13.01;54.46
6218;BME280;3142;48.206;11.550;2024-03-23T04:54:28;94872.97;;;12.99;54.66
6218;BME280;3142;48.206;11.550;2024-03-23T04:56:55;94875.03;;;12.97;54.69
6218;BME280;3142;48.206;11.550;2024-03-23T04:59:22;94868.19;;;12.96;54.88
6218;BME280;3142;48.206;11.550;2024-03-23T05:01:47;94864.53;;;12.97;55.74
6218;BME280;3142;48.206;11.550;2024-03-23T05:04:14;94853.22;;;12.97;54.16
6218;BME280;3142;48.206;11.550;2024-03-23T05:06:39;94847.19;;;12.96;54.92
6218;BME280;3142;48.206;11.550;2024-03-23T05:09:06;94851.06;;;12.94;54.98
6218;BME280;3142;48.206;11.550;2024-03-23T05:11:32;94853.38;;;12.90;55.24
6218;BME280;3142;48.206;11.550;2024-03-23T05:14:00;94840.25;;;12.90;54.15
6218;BME280;3142;48.206;11.550;2024-03-23T05:16:25;94847.09;;;12.91;55.52
6218;BME280;3142;48.206;11.550;2024-03-23T05:18:52;94849.81;;;12.96;54.73
6218;BME280;3142;48.206;11.550;2024-03-23T05:21:18;94849.56;;;12.98;54.84
6218;BME280;3142;48.206;11.550;2024-03-23T05:23:44;94840.56;;;12.94;54.93
6218;BME280;3142;48.206;11.550;2024-03-23T05:26:10;94836.13;;;12.94;53.77
6218;BME280;3142;48.206;11.550;2024-03-23T05:28:36;94840.00;;;12.92;54.11
6218;BME280;3142;48.206;11.550;2024-03-23T05:31:03;94845.25;;;12.92;54.96
6218;BME280;3142;48.206;11.550;2024-03-23T05:33:29;94836.34;;;12.93;54.08
6218;BME280;3142;48.206;11.550;2024-03-23T05:35:58;94841.13;;;12.96;53.98
6218;BME280;3142;48.206;11.550;2024-03-23T05:38:25;94838.03;;;12.99;54.22
6218;BME280;3142;48.206;11.550;2024-03-23T05:40:54;94836.66;;;12.96;53.89
6218;BME280;3142;48.206;11.550;2024-03-23T05:43:20;94836.91;;;12.95;54.24
6218;BME280;3142;48.206;11.550;2024-03-23T05:45:47;94838.03;;;12.99;54.43
6218;BME280;3142;48.206;11.550;2024-03-23T05:48:20;94831.97;;;12.98;54.21
6218;BME280;3142;48.206;11.550;2024-03-23T05:50:45;94823.72;;;13.07;53.72
6218;BME280;3142;48.206;11.550;2024-03-23T05:53:12;94817.19;;;13.09;54.22
6218;BME280;3142;48.206;11.550;2024-03-23T05:55:38;94821.66;;;13.09;53.56
6218;BME280;3142;48.206;11.550;2024-03-23T05:58:04;94816.16;;;13.10;54.15
6218;BME280;3142;48.206;11.550;2024-03-23T06:00:30;94820.94;;;13.13;52.88
6218;BME280;3142;48.206;11.550;2024-03-23T06:02:56;94802.56;;;13.13;53.60
6218;BME280;3142;48.206;11.550;2024-03-23T06:05:24;94799.81;;;13.20;53.56
6218;BME280;3142;48.206;11.550;2024-03-23T06:07:50;94795.19;;;13.27;52.68
6218;BME280;3142;48.206;11.550;2024-03-23T06:10:16;94789.00;;;13.33;53.13
6218;BME280;3142;48.206;11.550;2024-03-23T06:12:42;94787.78;;;13.41;52.65
6218;BME280;3142;48.206;11.550;2024-03-23T06:15:09;94779.50;;;13.49;52.55
6218;BME280;3142;48.206;11.550;2024-03-23T06:17:36;94773.53;;;13.53;52.80
6218;BME280;3142;48.206;11.550;2024-03-23T06:20:02;94765.50;;;13.60;52.77
6218;BME280;3142;48.206;11.550;2024-03-23T06:22:30;94769.06;;;13.71;51.95
6218;BME280;3142;48.206;11.550;2024-03-23T06:24:55;94760.50;;;13.80;53.31
6218;BME280;3142;48.206;11.550;2024-03-23T06:27:22;94744.63;;;13.92;51.58
6218;BME280;3142;48.206;11.550;2024-03-23T06:29:47;94746.81;;;14.00;52.77
6218;BME280;3142;48.206;11.550;2024-03-23T06:32:13;94747.19;;;14.09;52.07
6218;BME280;3142;48.206;11.550;2024-03-23T06:34:41;94735.78;;;14.25;52.01
6218;BME280;3142;48.206;11.550;2024-03-23T06:37:07;94733.09;;;14.42;51.19
6218;BME280;3142;48.206;11.550;2024-03-23T06:39:36;94726.97;;;14.58;50.33
6218;BME280;3142;48.206;11.550;2024-03-23T06:42:03;94714.03;;;14.84;49.95
6218;BME280;3142;48.206;11.550;2024-03-23T06:44:28;94711.66;;;15.14;48.73
6218;BME280;3142;48.206;11.550;2024-03-23T06:46:55;94706.31;;;15.46;48.56
6218;BME280;3142;48.206;11.550;2024-03-23T06:49:20;94710.72;;;15.73;47.71
6218;BME280;3142;48.206;11.550;2024-03-23T06:51:47;94705.81;;;15.91;46.69
6218;BME280;3142;48.206;11.550;2024-03-23T06:54:12;94703.50;;;16.15;46.32
6218;BME280;3142;48.206;11.550;2024-03-23T06:56:40;94703.59;;;16.41;45.78
6218;BME280;3142;48.206;11.550;2024-03-23T06:59:06;94696.50;;;16.67;45.38
6218;BME280;3142;48.206;11.550;2024-03-23T07:01:33;94691.81;;;16.89;44.57
6218;BME280;3142;48.206;11.550;2024-03-23T07:03:58;94701.06;;;17.17;44.18
6218;BME280;3142;48.206;11.550;2024-03-23T07:06:24;94698.94;;;17.34;43.98
6218;BME280;3142;48.206;11.550;2024-03-23T07:08:52;94687.25;;;17.71;43.55
6218;BME280;3142;48.206;11.550;2024-03-23T07:11:19;94685.72;;;18.24;42.42
6218;BME280;3142;48.206;11.550;2024-03-23T07:13:46;94698.56;;;17.82;42.95
6218;BME280;3142;48.206;11.550;2024-03-23T07:16:13;94710.81;;;17.37;43.73
6218;BME280;3142;48.206;11.550;2024-03-23T07:18:38;94703.16;;;17.20;44.58
6218;BME280;3142;48.206;11.550;2024-03-23T07:21:05;94702.06;;;16.65;46.00
6218;BME280;3142;48.206;11.550;2024-03-23T07:23:32;94697.53;;;16.40;47.12
6218;BME280;3142;48.206;11.550;2024-03-23T07:26:00;94696.69;;;16.24;47.78
6218;BME280;3142;48.206;11.550;2024-03-23T07:28:25;94709.06;;;16.14;49.17
6218;BME280;3142;48.206;11.550;2024-03-23T07:31:06;94716.66;;;15.95;50.38
6218;BME280;3142;48.206;11.550;2024-03-23T07:33:35;94720.53;;;15.82;51.50
6218;BME280;3142;48.206;11.550;2024-03-23T07:36:02;94736.53;;;15.65;52.12
6218;BME280;3142;48.206;11.550;2024-03-23T07:38:28;94760.44;;;15.54;53.34
6218;BME280;3142;48.206;11.550;2024-03-23T07:41:05;94801.97;;;15.36;56.38
6218;BME280;3142;48.206;11.550;2024-03-23T07:43:32;94818.06;;;15.08;58.05
6218;BME280;3142;48.206;11.550;2024-03-23T07:45:57;94811.41;;;14.78;58.88
6218;BME280;3142;48.206;11.550;2024-03-23T07:48:25;94804.28;;;14.52;60.73
6218;BME280;3142;48.206;11.550;2024-03-23T07:50:58;94798.75;;;14.32;62.22
6218;BME280;3142;48.206;11.550;2024-03-23T07:53:25;94807.03;;;14.18;62.54
6218;BME280;3142;48.206;11.550;2024-03-23T07:55:54;94819.50;;;14.06;62.56
6218;BME280;3142;48.206;11.550;2024-03-23T07:58:20;94824.59;;;13.96;64.30
6218;BME280;3142;48.206;11.550;2024-03-23T08:00:46;94839.22;;;13.87;65.24
6218;BME280;3142;48.206;11.550;2024-03-23T08:03:12;94840.97;;;13.81;67.25
6218;BME280;3142;48.206;11.550;2024-03-23T08:05:39;94852.84;;;13.67;67.77
6218;BME280;3142;48.206;11.550;2024-03-23T08:08:06;94869.34;;;13.62;67.54
6218;BME280;3142;48.206;11.550;2024-03-23T08:10:31;94854.44;;;13.51;68.00
6218;BME280;3142;48.206;11.550;2024-03-23T08:12:57;94873.81;;;13.45;68.71
6218;BME280;3142;48.206;11.550;2024-03-23T08:15:23;94912.56;;;13.38;69.44
6218;BME280;3142;48.206;11.550;2024-03-23T08:17:50;94896.16;;;13.31;70.46
6218;BME280;3142;48.206;11.550;2024-03-23T08:20:15;94904.16;;;13.24;71.27
6218;BME280;3142;48.206;11.550;2024-03-23T08:22:43;94940.31;;;13.05;72.69
6218;BME280;3142;48.206;11.550;2024-03-23T08:25:08;94950.31;;;12.68;72.50
6218;BME280;3142;48.206;11.550;2024-03-23T08:27:35;94963.38;;;12.40;72.21
6218;BME280;3142;48.206;11.550;2024-03-23T08:30:00;94966.44;;;12.25;73.20
6218;BME280;3142;48.206;11.550;2024-03-23T08:32:27;94960.50;;;12.18;72.54
6218;BME280;3142;48.206;11.550;2024-03-23T08:34:53;94964.75;;;12.07;73.64
6218;BME280;3142;48.206;11.550;2024-03-23T08:37:20;94973.75;;;12.11;73.50
6218;BME280;3142;48.206;11.550;2024-03-23T08:39:47;94968.03;;;12.03;72.68
6218;BME280;3142;48.206;11.550;2024-03-23T08:42:13;94980.56;;;12.01;73.36
6218;BME280;3142;48.206;11.550;2024-03-23T08:44:39;94985.47;;;11.97;73.63
6218;BME280;3142;48.206;11.550;2024-03-23T08:47:06;94982.97;;;12.02;74.46
6218;BME280;3142;48.206;11.550;2024-03-23T08:49:31;94980.66;;;12.06;74.52
6218;BME280;3142;48.206;11.550;2024-03-23T08:51:58;94981.25;;;11.96;74.40
6218;BME280;3142;48.206;11.550;2024-03-23T08:54:23;94986.25;;;11.98;75.37
6218;BME280;3142;48.206;11.550;2024-03-23T08:56:53;94990.81;;;12.02;75.28
6218;BME280;3142;48.206;11.550;2024-03-23T08:59:19;95002.22;;;11.96;74.26
6218;BME280;3142;48.206;11.550;2024-03-23T09:01:46;95008.59;;;12.00;74.20
6218;BME280;3142;48.206;11.550;2024-03-23T09:04:11;95013.84;;;12.00;74.41
6218;BME280;3142;48.206;11.550;2024-03-23T09:06:38;95016.94;;;11.97;74.17
6218;BME280;3142;48.206;11.550;2024-03-23T09:09:03;95025.34;;;11.99;74.52
6218;BME280;3142;48.206;11.550;2024-03-23T09:11:29;95034.38;;;12.03;74.62
6218;BME280;3142;48.206;11.550;2024-03-23T09:13:56;95039.94;;;11.95;74.89
6218;BME280;3142;48.206;11.550;2024-03-23T09:16:23;95029.25;;;11.97;75.38
6218;BME280;3142;48.206;11.550;2024-03-23T09:18:48;95033.69;;;11.96;75.09
6218;BME280;3142;48.206;11.550;2024-03-23T09:21:14;95028.53;;;11.90;74.98
6218;BME280;3142;48.206;11.550;2024-03-23T09:23:43;95034.09;;;11.81;75.95
6218;BME280;3142;48.206;11.550;2024-03-23T09:26:08;95029.19;;;11.85;75.83
6218;BME280;3142;48.206;11.550;2024-03-23T09:28:35;95038.78;;;11.79;77.03
6218;BME280;3142;48.206;11.550;2024-03-23T09:31:04;95038.31;;;11.52;75.66
6218;BME280;3142;48.206;11.550;2024-03-23T09:33:30;95035.25;;;11.37;75.52
6218;BME280;3142;48.206;11.550;2024-03-23T09:35:56;95031.84;;;11.37;75.08
6218;BME280;3142;48.206;11.550;2024-03-23T09:38:22;95032.84;;;11.36;73.75
6218;BME280;3142;48.206;11.550;2024-03-23T09:40:50;95032.44;;;11.39;73.63
6218;BME280;3142;48.206;11.550;2024-03-23T09:43:19;95048.50;;;11.42;73.18
6218;BME280;3142;48.206;11.550;2024-03-23T09:45:45;95039.84;;;11.42;71.82
6218;BME280;3142;48.206;11.550;2024-03-23T09:48:13;95046.56;;;11.38;72.08
6218;BME280;3142;48.206;11.550;2024-03-23T09:50:39;95058.81;;;11.37;71.77
6218;BME280;3142;48.206;11.550;2024-03-23T09:53:07;95054.03;;;11.34;71.65
6218;BME280;3142;48.206;11.550;2024-03-23T09:55:32;95066.53;;;11.32;70.82
6218;BME280;3142;48.206;11.550;2024-03-23T09:58:00;95063.94;;;11.32;70.34
6218;BME280;3142;48.206;11.550;2024-03-23T10:00:26;95075.19;;;11.33;70.61
6218;BME280;3142;48.206;11.550;2024-03-23T10:02:55;95083.28;;;11.13;69.17
6218;BME280;3142;48.206;11.550;2024-03-23T10:05:22;95100.75;;;11.01;68.04
6218;BME280;3142;48.206;11.550;2024-03-23T10:07:49;95108.72;;;10.87;68.71
6218;BME280;3142;48.206;11.550;2024-03-23T10:10:16;95096.66;;;10.86;69.37
6218;BME280;3142;48.206;11.550;2024-03-23T10:12:44;95090.63;;;10.61;68.91
6218;BME280;3142;48.206;11.550;2024-03-23T10:15:15;95098.50;;;10.61;69.77
6218;BME280;3142;48.206;11.550;2024-03-23T10:17:44;95093.84;;;10.63;69.68
6218;BME280;3142;48.206;11.550;2024-03-23T10:20:10;95089.69;;;10.55;70.92
6218;BME280;3142;48.206;11.550;2024-03-23T10:22:38;95097.41;;;10.68;71.00
6218;BME280;3142;48.206;11.550;2024-03-23T10:25:08;95102.00;;;10.73;71.15
6218;BME280;3142;48.206;11.550;2024-03-23T10:27:34;95102.59;;;10.75;71.15
6218;BME280;3142;48.206;11.550;2024-03-23T10:30:08;95103.38;;;10.76;70.73
6218;BME280;3142;48.206;11.550;2024-03-23T10:32:34;95106.09;;;10.87;71.11
6218;BME280;3142;48.206;11.550;2024-03-23T10:35:14;95110.97;;;10.84;71.42
6218;BME280;3142;48.206;11.550;2024-03-23T10:37:42;95112.13;;;10.88;70.98
6218;BME280;3142;48.206;11.550;2024-03-23T10:40:10;95118.31;;;10.93;71.67
6218;BME280;3142;48.206;11.550;2024-03-23T10:42:38;95118.47;;;10.98;71.74
6218;BME280;3142;48.206;11.550;2024-03-23T10:45:06;95127.28;;;11.04;71.78
6218;BME280;3142;48.206;11.550;2024-03-23T10:47:34;95136.91;;;11.10;72.16
6218;BME280;3142;48.206;11.550;2024-03-23T10:50:01;95128.38;;;11.15;73.00
6218;BME280;3142;48.206;11.550;2024-03-23T10:52:27;95146.63;;;11.21;72.41
6218;BME280;3142;48.206;11.550;2024-03-23T10:54:55;95139.72;;;11.27;71.68
6218;BME280;3142;48.206;11.550;2024-03-23T10:57:29;95151.72;;;11.35;72.19
6218;BME280;3142;48.206;11.550;2024-03-23T10:59:56;95150.00;;;11.28;72.46
6218;BME280;3142;48.206;11.550;2024-03-23T11:02:25;95167.34;;;11.23;71.40
6218;BME280;3142;48.206;11.550;2024-03-23T11:04:52;95168.09;;;11.12;71.49
6218;BME280;3142;48.206;11.550;2024-03-23T11:07:31;95191.34;;;11.02;72.23
6218;BME280;3142;48.206;11.550;2024-03-23T11:09:58;95182.94;;;10.93;70.94
6218;BME280;3142;48.206;11.550;2024-03-23T11:12:29;95173.28;;;10.93;68.65
6218;BME280;3142;48.206;11.550;2024-03-23T11:15:01;95179.25;;;11.01;68.29
6218;BME280;3142;48.206;11.550;2024-03-23T11:17:28;95204.34;;;11.08;68.25
6218;BME280;3142;48.206;11.550;2024-03-23T11:19:55;95203.72;;;11.13;66.23
6218;BME280;3142;48.206;11.550;2024-03-23T11:22:39;95210.03;;;11.05;64.21
6218;BME280;3142;48.206;11.550;2024-03-23T11:25:16;95201.16;;;11.06;63.55
6218;BME280;3142;48.206;11.550;2024-03-23T11:27:43;95190.31;;;11.03;62.29
6218;BME280;3142;48.206;11.550;2024-03-23T11:30:13;95165.16;;;11.02;62.77
6218;BME280;3142;48.206;11.550;2024-03-23T11:32:41;95152.06;;;11.02;63.27
6218;BME280;3142;48.206;11.550;2024-03-23T11:35:07;95180.97;;;11.13;63.82
6218;BME280;3142;48.206;11.550;2024-03-23T11:37:35;95189.97;;;11.17;63.76
6218;BME280;3142;48.206;11.550;2024-03-23T11:40:18;95181.53;;;11.15;61.46
6218;BME280;3142;48.206;11.550;2024-03-23T11:42:44;95188.97;;;11.18;62.06
6218;BME280;3142;48.206;11.550;2024-03-23T11:45:11;95179.28;;;11.19;60.22
6218;BME280;3142;48.206;11.550;2024-03-23T11:47:37;95190.78;;;11.18;60.67
6218;BME280;3142;48.206;11.550;2024-03-23T11:50:03;95199.16;;;11.26;61.04
6218;BME280;3142;48.206;11.550;2024-03-23T11:52:30;95202.00;;;11.25;60.07
6218;BME280;3142;48.206;11.550;2024-03-23T11:55:03;95193.13;;;11.26;59.38
6218;BME280;3142;48.206;11.550;2024-03-23T11:57:31;95154.69;;;11.20;60.38
6218;BME280;3142;48.206;11.550;2024-03-23T11:59:56;95161.63;;;11.14;60.41
6218;BME280;3142;48.206;11.550;2024-03-23T12:02:23;95172.59;;;11.23;60.74
6218;BME280;3142;48.206;11.550;2024-03-23T12:04:49;95171.00;;;11.22;60.61
6218;BME280;3142;48.206;11.550;2024-03-23T12:07:16;95171.44;;;11.19;61.34
6218;BME280;3142;48.206;11.550;2024-03-23T12:09:44;95180.63;;;11.28;61.62
6218;BME280;3142;48.206;11.550;2024-03-23T12:12:14;95173.91;;;11.32;60.84
6218;BME280;3142;48.206;11.550;2024-03-23T12:14:42;95174.94;;;11.13;56.26
6218;BME280;3142;48.206;11.550;2024-03-23T12:17:12;95172.34;;;11.06;56.54
6218;BME280;3142;48.206;11.550;2024-03-23T12:19:37;95180.16;;;11.13;56.03
6218;BME280;3142;48.206;11.550;2024-03-23T12:22:04;95160.97;;;11.19;56.24
6218;BME280;3142;48.206;11.550;2024-03-23T12:24:30;95171.78;;;11.22;56.08
6218;BME280;3142;48.206;11.550;2024-03-23T12:27:00;95172.81;;;11.21;55.24
6218;BME280;3142;48.206;11.550;2024-03-23T12:29:27;95177.53;;;11.13;54.50
6218;BME280;3142;48.206;11.550;2024-03-23T12:31:54;95176.09;;;11.17;54.24
6218;BME280;3142;48.206;11.550;2024-03-23T12:34:21;95166.56;;;11.22;53.13
6218;BME280;3142;48.206;11.550;2024-03-23T12:36:47;95156.88;;;11.23;53.48
6218;BME280;3142;48.206;11.550;2024-03-23T12:39:13;95164.16;;;11.21;53.65
6218;BME280;3142;48.206;11.550;2024-03-23T12:41:39;95174.38;;;11.04;54.14
6218;BME280;3142;48.206;11.550;2024-03-23T12:44:05;95171.66;;;11.17;53.15
6218;BME280;3142;48.206;11.550;2024-03-23T12:46:33;95154.78;;;11.13;52.98
6218;BME280;3142;48.206;11.550;2024-03-23T12:49:00;95159.84;;;11.08;51.85
6218;BME280;3142;48.206;11.550;2024-03-23T12:51:26;95154.38;;;11.10;52.91
6218;BME280;3142;48.206;11.550;2024-03-23T12:53:52;95156.97;;;11.16;52.92
6218;BME280;3142;48.206;11.550;2024-03-23T12:56:18;95158.06;;;11.27;52.81
6218;BME280;3142;48.206;11.550;2024-03-23T12:58:44;95162.50;;;11.26;52.89
6218;BME280;3142;48.206;11.550;2024-03-23T13:01:10;95161.19;;;11.36;53.12
6218;BME280;3142;48.206;11.550;2024-03-23T13:03:36;95150.22;;;11.45;53.92
6218;BME280;3142;48.206;11.550;2024-03-23T13:06:04;95159.59;;;11.53;53.20
6218;BME280;3142;48.206;11.550;2024-03-23T13:08:32;95159.38;;;11.54;53.56
6218;BME280;3142;48.206;11.550;2024-03-23T13:10:59;95167.25;;;11.54;53.39
6218;BME280;3142;48.206;11.550;2024-03-23T13:13:24;95176.19;;;11.47;53.13
6218;BME280;3142;48.206;11.550;2024-03-23T13:15:51;95171.25;;;11.39;52.88
6218;BME280;3142;48.206;11.550;2024-03-23T13:18:17;95171.44;;;11.37;52.77
6218;BME280;3142;48.206;11.550;2024-03-23T13:20:44;95172.09;;;11.33;53.43
6218;BME280;3142;48.206;11.550;2024-03-23T13:23:10;95149.19;;;11.28;53.67
6218;BME280;3142;48.206;11.550;2024-03-23T13:25:37;95140.53;;;11.27;54.21
6218;BME280;3142;48.206;11.550;2024-03-23T13:28:03;95129.25;;;11.27;54.64
6218;BME280;3142;48.206;11.550;2024-03-23T13:30:29;95126.25;;;11.23;54.86
6218;BME280;3142;48.206;11.550;2024-03-23T13:32:55;95138.28;;;11.31;54.67
6218;BME280;3142;48.206;11.550;2024-03-23T13:35:21;95137.47;;;11.31;54.17
6218;BME280;3142;48.206;11.550;2024-03-23T13:37:47;95142.34;;;11.27;53.96
6218;BME280;3142;48.206;11.550;2024-03-23T13:40:15;95141.34;;;11.28;53.99
6218;BME280;3142;48.206;11.550;2024-03-23T13:42:41;95151.81;;;11.28;54.16
6218;BME280;3142;48.206;11.550;2024-03-23T13:45:08;95152.88;;;11.20;54.66
6218;BME280;3142;48.206;11.550;2024-03-23T13:47:37;95139.44;;;11.17;55.03
6218;BME280;3142;48.206;11.550;2024-03-23T13:50:04;95175.63;;;11.02;56.47
6218;BME280;3142;48.206;11.550;2024-03-23T13:52:30;95185.28;;;11.01;57.27
6218;BME280;3142;48.206;11.550;2024-03-23T13:54:56;95190.84;;;10.61;58.47
6218;BME280;3142;48.206;11.550;2024-03-23T13:57:23;95202.63;;;10.46;59.78
6218;BME280;3142;48.206;11.550;2024-03-23T13:59:51;95184.56;;;10.37;60.59
6218;BME280;3142;48.206;11.550;2024-03-23T14:02:16;95189.41;;;10.34;61.10